< < Back
Terminal Aerodrome Forecast


Current Version              Previous Versions:   1  2  3  4  5  6  7  8  9  

Terminal Aerodrome Forecast

269
FTUS44 KOHX 302300
TAFBNA
TAF
KBNA 302323Z 3100/3124 VRB04KT P6SM SKC
     FM310100 VRB04KT P6SM SCT060 BKN100
     FM311200 35006KT P6SM VCSH OVC050
     FM311500 33009KT P6SM OVC025
     FM311800 33014G25KT P6SM OVC015=



Latest METAR

026
SAUS70 KWBC 310900 RRF
MTRBNA
METAR KBNA 310853Z 00000KT 10SM OVC070 10/07 A2999 RMK AO2 SLP154
T01000072 55007


USA.gov is the U.S. government's official web portal to all federal, state and local government web resources and services.